Time;durP1;ratioP1;P1;durP2;ratioP2;P2;SDS_P1;SDS_P2;PMS_P1;PMS_P2;Temp;Humidity;BMP_temperature;BMP_pressure;BME280_temperature;BME280_humidity;BME280_pressure;Samples;Min_cycle;Max_cycle;Signal;HPM_P1;HPM_P2
2023/10/14 00:01:09;;;;;;;16.27;11.17;;;15.50;99.90;;;;;;5048382;28;20256;-82
2023/10/14 00:03:41;;;;;;;14.40;10.90;;;15.50;99.90;;;;;;5043548;28;20229;-82
2023/10/14 00:06:11;;;;;;;16.10;10.27;;;15.50;99.90;;;;;;5045077;28;20460;-82
2023/10/14 00:08:47;;;;;;;16.90;11.00;;;15.50;99.90;;;;;;5045940;28;20310;-82
2023/10/14 00:11:15;;;;;;;14.37;10.37;;;15.40;99.90;;;;;;5043631;28;20221;-83
2023/10/14 00:13:48;;;;;;;13.40;5.60;;;15.40;99.90;;;;;;5044907;28;21096;-82
2023/10/14 00:16:29;;;;;;;5.27;2.77;;;15.30;99.90;;;;;;5039058;28;20992;-82
2023/10/14 00:18:58;;;;;;;17.93;2.53;;;15.30;99.90;;;;;;5032499;28;20934;-83
2023/10/14 00:21:26;;;;;;;5.23;2.40;;;15.10;99.90;;;;;;5044260;28;20783;-84
2023/10/14 00:23:56;;;;;;;5.60;2.07;;;14.90;99.90;;;;;;5045547;28;20605;-83
2023/10/14 00:26:24;;;;;;;4.90;1.60;;;14.70;99.90;;;;;;5048454;28;20236;-82
2023/10/14 00:29:01;;;;;;;3.67;1.33;;;14.40;99.90;;;;;;5045517;28;20226;-84
2023/10/14 00:31:28;;;;;;;3.10;1.03;;;14.20;99.90;;;;;;5043411;28;20253;-82
2023/10/14 00:33:55;;;;;;;1.93;0.90;;;14.00;99.90;;;;;;5037874;28;20226;-83
2023/10/14 00:36:30;;;;;;;2.33;0.90;;;13.80;99.90;;;;;;5038966;28;20229;-82
2023/10/14 00:38:57;;;;;;;1.70;0.90;;;13.60;99.90;;;;;;5044351;28;20235;-84
2023/10/14 00:41:26;;;;;;;1.77;1.00;;;13.40;99.90;;;;;;5047088;28;20230;-83
2023/10/14 00:43:54;;;;;;;5.23;0.97;;;13.30;99.90;;;;;;5036678;28;20330;-84
2023/10/14 00:46:23;;;;;;;3.17;0.80;;;13.20;99.90;;;;;;5042900;28;20663;-82
2023/10/14 00:48:58;;;;;;;2.37;0.70;;;13.10;99.90;;;;;;5036468;28;20243;-82
2023/10/14 00:51:26;;;;;;;2.23;1.00;;;13.00;99.90;;;;;;5035018;28;20935;-83
2023/10/14 00:54:01;;;;;;;3.23;1.00;;;13.00;99.90;;;;;;5032772;28;20284;-85
2023/10/14 00:56:28;;;;;;;2.80;0.90;;;12.90;99.90;;;;;;5046154;28;20225;-85
2023/10/14 00:58:58;;;;;;;5.20;0.90;;;12.80;99.90;;;;;;5037236;28;20225;-83
2023/10/14 01:01:31;;;;;;;1.73;1.00;;;12.80;99.90;;;;;;5039730;28;20227;-85
2023/10/14 01:04:09;;;;;;;3.33;1.00;;;12.80;99.90;;;;;;5041901;28;20236;-83
2023/10/14 01:06:55;;;;;;;2.43;1.00;;;12.80;99.90;;;;;;5044315;28;20227;-82
2023/10/14 01:09:31;;;;;;;4.20;1.20;;;12.70;99.90;;;;;;5042352;28;20537;-82
2023/10/14 01:11:59;;;;;;;3.30;1.00;;;12.70;99.90;;;;;;5041475;28;20238;-83
2023/10/14 01:14:27;;;;;;;2.53;0.90;;;12.70;99.90;;;;;;5037348;28;20227;-85
2023/10/14 01:16:57;;;;;;;3.20;1.20;;;12.60;99.90;;;;;;5042059;28;20227;-84
2023/10/14 01:19:24;;;;;;;1.77;0.90;;;12.60;99.90;;;;;;5040206;28;20228;-83
2023/10/14 01:21:52;;;;;;;4.70;1.00;;;12.70;99.90;;;;;;5042959;28;20246;-83
2023/10/14 01:24:21;;;;;;;3.40;1.10;;;12.60;99.90;;;;;;5040716;28;20293;-82
2023/10/14 01:26:56;;;;;;;4.93;1.30;;;12.70;99.90;;;;;;5044334;28;20220;-82
2023/10/14 01:29:31;;;;;;;4.43;1.40;;;12.60;99.90;;;;;;5031375;28;20222;-83
2023/10/14 01:32:13;;;;;;;4.30;1.10;;;12.70;99.90;;;;;;5039694;28;20228;-83
2023/10/14 01:34:43;;;;;;;3.17;1.10;;;12.60;99.90;;;;;;5036263;28;20231;-83
2023/10/14 01:37:19;;;;;;;3.30;1.10;;;12.70;99.90;;;;;;5037699;28;20271;-83
2023/10/14 01:39:50;;;;;;;4.17;1.37;;;12.60;99.90;;;;;;5036529;28;20911;-82
2023/10/14 01:42:19;;;;;;;6.37;1.37;;;12.60;99.90;;;;;;5038930;28;20618;-82
2023/10/14 01:44:53;;;;;;;7.97;1.90;;;12.60;99.90;;;;;;5040659;28;20234;-82
2023/10/14 01:47:20;;;;;;;3.13;1.33;;;12.60;99.90;;;;;;5039449;28;20255;-84
2023/10/14 01:49:47;;;;;;;5.17;1.53;;;12.60;99.90;;;;;;5034087;28;20226;-84
2023/10/14 01:52:19;;;;;;;4.40;1.63;;;12.60;99.90;;;;;;5040059;28;20904;-83
2023/10/14 01:54:48;;;;;;;7.43;1.70;;;12.60;99.90;;;;;;5034311;28;20303;-83
2023/10/14 01:57:17;;;;;;;5.73;1.80;;;12.60;99.90;;;;;;5040733;28;20422;-83
2023/10/14 01:59:46;;;;;;;4.17;1.70;;;12.60;99.90;;;;;;5040240;28;20821;-83
2023/10/14 02:02:19;;;;;;;5.00;1.43;;;12.60;99.90;;;;;;5031147;28;20792;-82
2023/10/14 02:04:47;;;;;;;6.57;2.17;;;12.60;99.90;;;;;;5041741;28;20324;-83
2023/10/14 02:07:18;;;;;;;6.43;1.43;;;12.60;99.90;;;;;;5039497;28;20228;-83
2023/10/14 02:09:46;;;;;;;9.63;1.50;;;12.60;99.90;;;;;;5038380;28;20223;-82
2023/10/14 02:12:15;;;;;;;7.20;1.80;;;12.60;99.90;;;;;;5031210;28;20227;-84
2023/10/14 02:14:44;;;;;;;5.43;1.33;;;12.60;99.90;;;;;;5042522;28;20224;-82
2023/10/14 02:17:16;;;;;;;11.23;1.90;;;12.60;99.90;;;;;;5040959;28;20228;-83
2023/10/14 02:19:49;;;;;;;9.87;2.00;;;12.60;99.90;;;;;;5043538;28;20235;-82
2023/10/14 02:22:21;;;;;;;6.47;1.80;;;12.60;99.90;;;;;;5040013;28;20222;-83
2023/10/14 02:24:49;;;;;;;6.03;1.40;;;12.60;99.90;;;;;;5037762;28;20755;-82
2023/10/14 02:27:17;;;;;;;9.50;2.10;;;12.60;99.90;;;;;;5038301;28;20234;-82
2023/10/14 02:29:45;;;;;;;8.53;1.60;;;12.50;99.90;;;;;;5034729;28;20785;-83
2023/10/14 02:32:13;;;;;;;7.17;1.50;;;12.50;99.90;;;;;;5038930;28;20235;-82
2023/10/14 02:34:40;;;;;;;6.80;1.60;;;12.50;99.90;;;;;;5036809;28;20692;-82
2023/10/14 02:37:07;;;;;;;5.80;1.67;;;12.40;99.90;;;;;;5036769;28;20216;-82
2023/10/14 02:39:34;;;;;;;7.33;1.40;;;12.40;99.90;;;;;;5041581;28;20284;-82
2023/10/14 02:42:07;;;;;;;3.70;1.20;;;12.30;99.90;;;;;;5041768;28;20245;-82
2023/10/14 02:44:46;;;;;;;4.33;1.20;;;12.30;99.90;;;;;;5038434;28;20258;-82
2023/10/14 02:47:14;;;;;;;4.10;1.17;;;12.30;99.90;;;;;;5037923;28;20247;-82
2023/10/14 02:49:42;;;;;;;5.60;1.30;;;12.30;99.90;;;;;;5040880;28;20231;-83
2023/10/14 02:52:11;;;;;;;6.13;1.70;;;12.20;99.90;;;;;;5044497;28;20893;-83
2023/10/14 02:54:41;;;;;;;5.80;1.60;;;12.20;99.90;;;;;;5042488;28;20242;-82
2023/10/14 02:57:23;;;;;;;8.13;1.50;;;12.20;99.90;;;;;;5039514;28;20221;-83
2023/10/14 02:59:55;;;;;;;5.20;1.73;;;12.20;99.90;;;;;;5038599;28;20239;-82
2023/10/14 03:02:26;;;;;;;2.90;1.10;;;12.20;99.90;;;;;;5044267;28;20292;-82
2023/10/14 03:05:09;;;;;;;3.80;1.00;;;12.20;99.90;;;;;;5042351;28;20762;-83
2023/10/14 03:07:46;;;;;;;3.03;1.10;;;12.20;99.90;;;;;;5057944;28;20224;-84
2023/10/14 03:10:28;;;;;;;4.60;1.23;;;12.10;99.90;;;;;;5035706;28;20258;-84
2023/10/14 03:12:57;;;;;;;4.50;1.03;;;12.10;99.90;;;;;;5055249;28;20224;-82
2023/10/14 03:15:31;;;;;;;15.17;1.63;;;12.10;99.90;;;;;;5044193;28;20233;-84
2023/10/14 03:18:00;;;;;;;5.63;1.30;;;12.10;99.90;;;;;;5045432;28;20729;-83
2023/10/14 03:20:44;;;;;;;7.17;1.17;;;11.90;99.90;;;;;;5035231;28;20251;-82
2023/10/14 03:23:19;;;;;;;3.27;1.23;;;11.90;99.90;;;;;;5039571;28;20592;-82
2023/10/14 03:25:47;;;;;;;6.40;1.50;;;11.80;99.90;;;;;;5043335;28;20718;-82
2023/10/14 03:28:15;;;;;;;5.13;1.00;;;11.80;99.90;;;;;;5040238;28;20238;-83
2023/10/14 03:30:46;;;;;;;7.83;1.67;;;11.70;99.90;;;;;;5039611;28;20281;-83
2023/10/14 03:33:14;;;;;;;3.83;1.30;;;11.70;99.90;;;;;;5039373;28;20221;-83
2023/10/14 03:35:48;;;;;;;3.67;1.37;;;11.60;99.90;;;;;;5038938;28;20220;-84
2023/10/14 03:38:25;;;;;;;6.50;1.30;;;11.60;99.90;;;;;;5044861;28;20955;-84
2023/10/14 03:41:02;;;;;;;5.03;1.20;;;11.60;99.90;;;;;;5042268;28;20224;-84
2023/10/14 03:43:30;;;;;;;5.17;1.60;;;11.50;99.90;;;;;;5041573;28;20328;-83
2023/10/14 03:46:04;;;;;;;3.47;1.20;;;11.50;99.90;;;;;;5043686;28;20242;-84
2023/10/14 03:48:45;;;;;;;5.90;1.30;;;11.50;99.90;;;;;;5047347;28;20230;-84
2023/10/14 03:51:13;;;;;;;8.60;2.20;;;11.50;99.90;;;;;;5042498;28;20243;-84
2023/10/14 03:53:40;;;;;;;6.53;1.47;;;11.40;99.90;;;;;;5038725;28;20248;-83
2023/10/14 03:56:06;;;;;;;7.50;1.50;;;11.30;99.90;;;;;;5041698;28;20242;-83
2023/10/14 03:58:36;;;;;;;9.00;1.83;;;11.30;99.90;;;;;;5044902;28;20280;-83
2023/10/14 04:01:05;;;;;;;8.33;1.87;;;11.30;99.90;;;;;;5040154;28;20224;-84
2023/10/14 04:03:40;;;;;;;4.67;1.63;;;11.20;99.90;;;;;;5036293;28;20721;-83
2023/10/14 04:06:08;;;;;;;8.33;1.70;;;11.10;99.90;;;;;;5045145;28;20236;-85
2023/10/14 04:08:46;;;;;;;10.93;2.33;;;11.00;99.90;;;;;;5046886;28;20738;-84
2023/10/14 04:11:14;;;;;;;8.57;1.80;;;11.00;99.90;;;;;;5040110;28;20224;-84
2023/10/14 04:13:50;;;;;;;5.90;1.63;;;10.90;99.90;;;;;;5046147;28;20314;-86
2023/10/14 04:16:27;;;;;;;6.97;1.40;;;10.80;99.90;;;;;;5041062;28;20228;-84
2023/10/14 04:19:04;;;;;;;5.87;1.70;;;10.80;99.90;;;;;;5040511;28;20231;-84
2023/10/14 04:21:38;;;;;;;8.47;1.70;;;10.70;99.90;;;;;;5035882;28;20337;-84
2023/10/14 04:24:18;;;;;;;5.33;1.40;;;10.70;99.90;;;;;;5041162;28;20881;-84
2023/10/14 04:26:48;;;;;;;7.13;2.00;;;10.60;99.90;;;;;;5041065;28;20242;-83
2023/10/14 04:29:34;;;;;;;7.73;1.60;;;10.60;99.90;;;;;;5038614;28;20225;-83
2023/10/14 04:32:14;;;;;;;6.20;1.97;;;10.50;99.90;;;;;;5042640;28;20765;-83
2023/10/14 04:34:46;;;;;;;9.83;1.93;;;10.50;99.90;;;;;;5035060;28;20231;-83
2023/10/14 04:37:19;;;;;;;14.80;1.63;;;10.40;99.90;;;;;;5038537;28;20233;-82
2023/10/14 04:39:47;;;;;;;12.30;1.93;;;10.40;99.90;;;;;;5039871;28;20253;-83
2023/10/14 04:42:25;;;;;;;6.30;1.77;;;10.40;99.90;;;;;;5043434;28;20225;-83
2023/10/14 04:44:55;;;;;;;8.80;1.97;;;10.30;99.90;;;;;;5042359;28;20239;-84
2023/10/14 04:47:36;;;;;;;8.67;2.20;;;10.30;99.90;;;;;;5040507;28;20257;-83
2023/10/14 04:50:13;;;;;;;9.27;2.47;;;10.30;99.90;;;;;;5037642;28;20245;-83
2023/10/14 04:52:41;;;;;;;6.93;1.97;;;10.20;99.90;;;;;;5038076;28;20233;-83
2023/10/14 04:55:20;;;;;;;11.70;2.13;;;10.20;99.90;;;;;;5041237;28;20232;-83
2023/10/14 04:58:05;;;;;;;9.83;2.27;;;10.20;99.90;;;;;;5041466;28;20232;-85
2023/10/14 05:00:38;;;;;;;10.37;2.57;;;10.20;99.90;;;;;;5038153;28;20228;-84
2023/10/14 05:03:07;;;;;;;8.57;2.00;;;10.20;99.90;;;;;;5047650;28;20235;-83
2023/10/14 05:05:33;;;;;;;9.10;2.00;;;10.10;99.90;;;;;;5035504;28;20257;-84
2023/10/14 05:08:04;;;;;;;11.87;2.23;;;10.10;99.90;;;;;;5042286;28;21044;-84
2023/10/14 05:10:30;;;;;;;11.97;2.13;;;10.10;99.90;;;;;;5041392;28;20332;-86
2023/10/14 05:12:57;;;;;;;9.73;2.13;;;10.10;99.90;;;;;;5043044;28;20714;-87
2023/10/14 05:15:27;;;;;;;6.20;1.87;;;10.10;99.90;;;;;;5035728;28;20224;-86
2023/10/14 05:18:00;;;;;;;8.57;2.60;;;10.10;99.90;;;;;;5039395;28;20231;-85
2023/10/14 05:20:49;;;;;;;8.03;1.97;;;10.00;99.90;;;;;;5038505;28;20942;-85
2023/10/14 05:23:19;;;;;;;7.13;1.80;;;10.10;99.90;;;;;;5037425;28;20224;-87
2023/10/14 05:25:48;;;;;;;9.40;1.87;;;10.00;99.90;;;;;;5044203;28;20234;-85
2023/10/14 05:28:16;;;;;;;6.37;1.67;;;10.00;99.90;;;;;;5044319;28;20332;-86
2023/10/14 05:30:52;;;;;;;7.57;1.57;;;10.10;99.90;;;;;;5013176;28;20224;-84
2023/10/14 05:33:21;;;;;;;8.07;1.90;;;10.10;99.90;;;;;;5036445;28;20305;-86
2023/10/14 05:35:49;;;;;;;8.63;2.37;;;10.10;99.90;;;;;;5031314;28;20217;-84
2023/10/14 05:38:17;;;;;;;7.03;2.00;;;10.20;99.90;;;;;;5035057;28;20222;-86
2023/10/14 05:40:44;;;;;;;9.63;1.90;;;10.20;99.90;;;;;;5044308;28;20772;-83
2023/10/14 05:43:12;;;;;;;7.43;1.90;;;10.20;99.90;;;;;;5031307;28;20216;-84
2023/10/14 05:45:40;;;;;;;7.50;2.13;;;10.30;99.90;;;;;;5040673;28;20226;-84
2023/10/14 05:48:08;;;;;;;4.80;1.60;;;10.30;99.90;;;;;;5039704;28;20231;-84
2023/10/14 05:50:36;;;;;;;7.37;1.77;;;10.30;99.90;;;;;;5032614;28;20314;-84
2023/10/14 05:53:07;;;;;;;9.50;2.27;;;10.30;99.90;;;;;;5042948;28;20660;-82
2023/10/14 05:55:39;;;;;;;9.37;1.97;;;10.30;99.90;;;;;;5040940;28;20221;-84
2023/10/14 05:58:08;;;;;;;6.07;1.53;;;10.30;99.90;;;;;;5041999;28;20285;-85
2023/10/14 06:00:38;;;;;;;8.23;2.17;;;10.30;99.90;;;;;;5041434;28;21174;-87
2023/10/14 06:03:11;;;;;;;9.73;1.77;;;10.10;99.90;;;;;;5044535;28;20237;-85
2023/10/14 06:05:39;;;;;;;11.77;2.00;;;10.20;99.90;;;;;;5042767;28;20880;-84
2023/10/14 06:08:16;;;;;;;6.53;1.90;;;10.20;99.90;;;;;;5036601;28;20247;-85
2023/10/14 06:10:43;;;;;;;7.53;1.87;;;10.10;99.90;;;;;;5043058;28;20231;-87
2023/10/14 06:13:13;;;;;;;8.53;2.00;;;10.10;99.90;;;;;;5040693;28;20227;-84
2023/10/14 06:15:41;;;;;;;8.20;1.80;;;10.10;99.90;;;;;;5041357;28;20227;-86
2023/10/14 06:18:09;;;;;;;6.10;1.87;;;10.00;99.90;;;;;;5038088;28;20232;-85
2023/10/14 06:20:39;;;;;;;11.23;2.43;;;10.10;99.90;;;;;;5041053;28;20239;-85
2023/10/14 06:23:09;;;;;;;8.60;2.10;;;10.10;99.90;;;;;;5043165;28;20242;-85
2023/10/14 06:25:38;;;;;;;10.97;2.20;;;10.10;99.90;;;;;;5042331;28;20314;-85
2023/10/14 06:28:07;;;;;;;11.33;2.07;;;10.10;99.90;;;;;;5040433;28;20257;-85
2023/10/14 06:30:34;;;;;;;5.47;1.83;;;10.10;99.90;;;;;;5041103;28;20638;-84
2023/10/14 06:33:04;;;;;;;8.07;2.00;;;10.10;99.90;;;;;;5034469;28;20315;-85
2023/10/14 06:35:32;;;;;;;7.10;2.20;;;10.10;99.90;;;;;;5042036;28;20255;-85
2023/10/14 06:37:59;;;;;;;10.43;2.20;;;10.10;99.90;;;;;;5035748;28;20220;-87
2023/10/14 06:40:35;;;;;;;9.23;2.20;;;10.10;99.90;;;;;;5038919;28;20712;-86
2023/10/14 06:43:06;;;;;;;13.13;2.17;;;10.10;99.90;;;;;;5031455;28;20261;-85
2023/10/14 06:45:34;;;;;;;7.97;1.90;;;10.00;99.90;;;;;;5031744;28;20632;-89
2023/10/14 06:48:03;;;;;;;12.27;2.10;;;10.00;99.90;;;;;;5033637;28;20232;-85
2023/10/14 06:50:31;;;;;;;8.60;2.30;;;10.00;99.90;;;;;;5037350;28;20224;-86
2023/10/14 06:52:59;;;;;;;8.03;2.13;;;10.00;99.90;;;;;;5037029;28;20255;-86
2023/10/14 06:55:37;;;;;;;8.47;1.80;;;10.00;99.90;;;;;;5031801;28;20231;-86
2023/10/14 06:58:05;;;;;;;7.60;2.23;;;9.90;99.90;;;;;;5037777;28;20224;-86
2023/10/14 07:00:33;;;;;;;9.13;2.87;;;10.00;99.90;;;;;;5036335;28;20228;-86
2023/10/14 07:03:01;;;;;;;7.80;1.87;;;10.00;99.90;;;;;;5036419;28;20277;-88
2023/10/14 07:05:31;;;;;;;8.33;2.20;;;10.00;99.90;;;;;;5033330;28;20222;-86
2023/10/14 07:07:58;;;;;;;9.97;2.30;;;10.10;99.90;;;;;;5032002;28;20320;-86
2023/10/14 07:10:33;;;;;;;10.73;2.40;;;10.20;99.90;;;;;;5033927;28;20231;-86
2023/10/14 07:13:01;;;;;;;9.47;1.97;;;10.20;99.90;;;;;;5038714;28;20223;-85
2023/10/14 07:15:30;;;;;;;7.20;1.50;;;10.30;99.90;;;;;;5036604;28;20240;-88
2023/10/14 07:17:58;;;;;;;10.40;2.13;;;10.40;99.90;;;;;;5032738;28;20228;-86
2023/10/14 07:20:29;;;;;;;9.67;1.80;;;10.50;99.90;;;;;;5032444;28;20307;-87
2023/10/14 07:22:58;;;;;;;11.50;2.27;;;10.50;99.90;;;;;;5049734;28;20561;-86
2023/10/14 07:25:32;;;;;;;9.07;1.83;;;10.50;99.90;;;;;;5038762;28;20219;-88
2023/10/14 07:27:59;;;;;;;9.20;2.13;;;10.60;99.90;;;;;;5029271;28;20623;-89
2023/10/14 07:30:34;;;;;;;16.97;2.40;;;10.70;99.90;;;;;;5037667;28;20220;-85
2023/10/14 07:33:04;;;;;;;12.90;2.40;;;10.70;99.90;;;;;;5034012;28;20242;-85
2023/10/14 07:35:35;;;;;;;7.90;2.50;;;10.80;99.90;;;;;;5036748;28;20297;-87
2023/10/14 07:38:02;;;;;;;11.80;2.13;;;10.80;99.90;;;;;;5035403;28;20234;-86
2023/10/14 07:40:33;;;;;;;9.30;2.13;;;10.90;99.90;;;;;;5035417;28;20291;-83
2023/10/14 07:43:07;;;;;;;9.10;2.50;;;10.90;99.90;;;;;;5035711;28;20243;-84
2023/10/14 07:45:36;;;;;;;8.80;2.20;;;10.90;99.90;;;;;;5032494;28;20277;-84
2023/10/14 07:48:08;;;;;;;14.80;2.97;;;10.80;99.90;;;;;;5051246;28;20308;-84
2023/10/14 07:50:37;;;;;;;11.30;2.60;;;10.80;99.90;;;;;;5036198;28;20233;-85
2023/10/14 07:53:08;;;;;;;9.10;2.33;;;10.80;99.90;;;;;;5038795;28;20227;-86
2023/10/14 07:55:39;;;;;;;7.10;1.87;;;10.80;99.90;;;;;;5039105;28;20290;-83
2023/10/14 07:58:08;;;;;;;8.33;2.13;;;10.80;99.90;;;;;;5048575;28;20259;-85
2023/10/14 08:00:39;;;;;;;14.27;2.70;;;10.80;99.90;;;;;;5042313;28;20953;-86
2023/10/14 08:03:07;;;;;;;10.37;2.03;;;10.80;99.90;;;;;;5044230;28;20228;-83
2023/10/14 08:05:37;;;;;;;10.50;2.10;;;10.90;99.90;;;;;;5040451;28;20231;-83
2023/10/14 08:08:06;;;;;;;9.67;2.00;;;10.80;99.90;;;;;;5042906;28;20310;-86
2023/10/14 08:10:34;;;;;;;9.43;2.50;;;10.80;99.90;;;;;;5049673;28;20251;-81
2023/10/14 08:13:04;;;;;;;10.80;2.10;;;10.90;99.90;;;;;;5040252;28;20665;-83
2023/10/14 08:15:31;;;;;;;13.43;2.30;;;10.90;99.90;;;;;;5043590;28;20252;-83
2023/10/14 08:18:00;;;;;;;10.33;1.77;;;11.00;99.90;;;;;;5038178;28;20928;-84
2023/10/14 08:20:28;;;;;;;14.83;2.37;;;11.00;99.90;;;;;;5037583;28;20615;-84
2023/10/14 08:22:55;;;;;;;11.23;2.73;;;11.10;99.90;;;;;;5040181;28;20908;-84
2023/10/14 08:25:25;;;;;;;9.03;2.10;;;11.20;99.90;;;;;;5044232;28;20254;-83
2023/10/14 08:27:55;;;;;;;8.47;1.90;;;11.40;99.90;;;;;;5040761;28;20326;-83
2023/10/14 08:30:24;;;;;;;8.67;2.43;;;11.60;99.90;;;;;;5040599;28;21105;-84
2023/10/14 08:32:52;;;;;;;8.57;2.37;;;11.90;99.90;;;;;;5033420;28;20255;-85
2023/10/14 08:35:20;;;;;;;7.63;2.27;;;12.10;99.90;;;;;;5035586;28;20256;-88
2023/10/14 08:37:50;;;;;;;11.77;2.47;;;12.40;99.90;;;;;;5041755;28;20242;-87
2023/10/14 08:40:19;;;;;;;7.30;1.83;;;12.60;99.90;;;;;;5033414;28;20229;-88
2023/10/14 08:42:51;;;;;;;10.67;2.40;;;12.70;99.90;;;;;;5052246;28;20241;-86
2023/10/14 08:45:20;;;;;;;11.20;2.30;;;12.80;99.90;;;;;;5036080;28;20230;-86
2023/10/14 08:47:51;;;;;;;8.67;1.90;;;12.90;99.90;;;;;;5029504;28;20223;-85
2023/10/14 08:50:21;;;;;;;5.30;1.50;;;12.80;99.90;;;;;;5036077;28;20224;-85
2023/10/14 08:52:51;;;;;;;9.10;2.00;;;12.80;99.90;;;;;;5029339;28;20366;-86
2023/10/14 08:55:19;;;;;;;6.73;2.23;;;12.70;99.90;;;;;;5030491;28;20833;-85
2023/10/14 08:57:50;;;;;;;9.03;1.90;;;12.60;99.90;;;;;;5031609;28;20239;-86
2023/10/14 09:00:23;;;;;;;9.17;2.50;;;12.60;99.90;;;;;;5022982;28;20260;-85
2023/10/14 09:02:57;;;;;;;7.40;2.17;;;12.60;99.90;;;;;;5029933;28;20239;-86
2023/10/14 09:05:26;;;;;;;7.43;2.37;;;12.70;99.90;;;;;;5030989;28;20238;-86
2023/10/14 09:07:57;;;;;;;10.60;2.20;;;12.80;99.90;;;;;;5031285;28;20229;-86
2023/10/14 09:10:24;;;;;;;7.07;1.73;;;12.90;99.90;;;;;;5028822;28;20239;-85
2023/10/14 09:12:57;;;;;;;11.77;2.07;;;13.00;99.90;;;;;;5030162;28;20228;-84
2023/10/14 09:15:25;;;;;;;7.83;2.20;;;13.10;99.90;;;;;;5033305;28;20485;-86
2023/10/14 09:17:56;;;;;;;10.03;2.40;;;13.20;99.90;;;;;;5027183;28;20279;-85
2023/10/14 09:20:31;;;;;;;9.03;2.13;;;13.40;99.90;;;;;;5033322;28;20346;-86
2023/10/14 09:23:17;;;;;;;8.67;2.20;;;13.60;99.90;;;;;;5023689;28;20233;-85
2023/10/14 09:25:45;;;;;;;8.63;1.73;;;13.90;99.90;;;;;;5036777;28;20310;-86
2023/10/14 09:28:13;;;;;;;6.03;1.87;;;14.30;99.90;;;;;;5030924;28;20229;-86
2023/10/14 09:30:44;;;;;;;7.27;2.20;;;14.60;99.90;;;;;;5035524;28;20223;-85
2023/10/14 09:33:16;;;;;;;9.87;1.87;;;14.80;99.90;;;;;;5029392;28;20823;-85
2023/10/14 09:35:45;;;;;;;8.07;2.20;;;15.10;99.90;;;;;;5029344;28;20814;-82
2023/10/14 09:38:15;;;;;;;7.27;1.90;;;15.40;99.90;;;;;;5035492;28;20284;-84
2023/10/14 09:40:47;;;;;;;7.13;2.40;;;15.50;99.90;;;;;;5039106;28;20217;-85
2023/10/14 09:43:15;;;;;;;9.50;2.00;;;15.60;99.90;;;;;;5027507;28;20233;-87
2023/10/14 09:45:44;;;;;;;9.53;2.23;;;15.60;99.90;;;;;;5032387;28;20862;-88
2023/10/14 09:48:15;;;;;;;10.37;1.90;;;15.60;99.90;;;;;;5035076;28;20231;-86
2023/10/14 09:50:44;;;;;;;7.20;1.90;;;15.60;99.90;;;;;;5043125;28;20239;-87
2023/10/14 09:53:13;;;;;;;10.10;2.30;;;15.60;99.90;;;;;;5036716;28;20237;-87
2023/10/14 09:55:43;;;;;;;8.17;1.57;;;15.60;99.90;;;;;;5037009;28;20218;-87
2023/10/14 09:58:12;;;;;;;10.10;2.30;;;15.60;99.90;;;;;;5023027;28;20296;-88
2023/10/14 10:00:43;;;;;;;6.63;2.07;;;15.70;99.90;;;;;;5039858;28;20314;-88
2023/10/14 10:03:13;;;;;;;7.43;2.17;;;15.80;99.90;;;;;;5040103;28;20616;-87
2023/10/14 10:05:46;;;;;;;9.67;2.17;;;15.80;99.90;;;;;;5030922;28;20213;-88
2023/10/14 10:08:31;;;;;;;8.07;2.43;;;15.90;99.90;;;;;;5039687;28;20228;-87
2023/10/14 10:10:59;;;;;;;11.73;1.80;;;16.10;99.90;;;;;;5026765;28;20224;-90
2023/10/14 10:13:29;;;;;;;7.37;2.03;;;16.30;99.90;;;;;;5036088;28;20650;-90
2023/10/14 10:16:03;;;;;;;10.63;2.30;;;16.30;99.90;;;;;;5040749;28;20851;-87
2023/10/14 10:18:57;;;;;;;8.57;1.43;;;16.50;99.90;;;;;;5024874;28;20249;-85
2023/10/14 10:21:27;;;;;;;3.53;1.17;;;16.40;99.90;;;;;;5033000;28;20598;-85
2023/10/14 10:23:57;;;;;;;3.07;1.10;;;16.10;99.90;;;;;;5036183;28;20760;-84
2023/10/14 10:26:24;;;;;;;3.87;0.93;;;15.50;99.90;;;;;;5030931;28;20737;-85
2023/10/14 10:28:51;;;;;;;5.83;1.40;;;14.80;99.90;;;;;;5036334;28;20602;-85
2023/10/14 10:31:23;;;;;;;4.60;1.30;;;14.10;99.90;;;;;;5032791;28;20818;-85
2023/10/14 10:33:59;;;;;;;5.93;1.10;;;13.40;99.90;;;;;;5032403;28;20232;-84
2023/10/14 10:36:28;;;;;;;3.17;1.00;;;12.80;99.90;;;;;;5039568;28;20766;-85
2023/10/14 10:39:15;;;;;;;3.50;0.80;;;12.20;99.90;;;;;;5036204;28;20220;-87
2023/10/14 10:41:43;;;;;;;4.00;0.90;;;11.70;99.90;;;;;;5043046;28;20358;-88
2023/10/14 10:44:12;;;;;;;3.17;0.90;;;11.40;99.90;;;;;;5038184;28;20227;-86
2023/10/14 10:46:44;;;;;;;2.97;0.90;;;11.30;99.90;;;;;;5033463;28;20786;-88
2023/10/14 10:49:16;;;;;;;3.13;1.07;;;11.40;99.90;;;;;;5028981;28;20230;-88
2023/10/14 10:52:12;;;;;;;2.93;0.77;;;11.50;99.90;;;;;;5039671;28;20226;-86
2023/10/14 10:54:42;;;;;;;2.60;0.80;;;11.80;99.90;;;;;;5034461;28;20853;-86
2023/10/14 10:57:11;;;;;;;4.90;1.10;;;12.20;99.90;;;;;;5030294;28;20223;-87
2023/10/14 10:59:39;;;;;;;4.80;1.30;;;12.40;99.90;;;;;;5035213;28;20306;-87
2023/10/14 11:02:08;;;;;;;4.23;1.03;;;12.60;99.90;;;;;;5027859;28;20255;-86
2023/10/14 11:04:38;;;;;;;3.60;0.93;;;12.60;99.90;;;;;;5041066;28;20727;-86
2023/10/14 11:07:07;;;;;;;4.00;1.20;;;12.60;99.90;;;;;;5034438;28;20223;-86
2023/10/14 11:09:39;;;;;;;2.90;1.20;;;12.60;99.90;;;;;;5033512;28;20223;-87
2023/10/14 11:12:07;;;;;;;5.83;1.30;;;12.60;99.90;;;;;;5035145;28;20235;-88
2023/10/14 11:14:33;;;;;;;4.17;0.70;;;12.60;99.90;;;;;;5041148;28;20820;-87
2023/10/14 11:17:00;;;;;;;5.77;1.20;;;12.60;99.90;;;;;;5052186;28;20229;-87
2023/10/14 11:19:31;;;;;;;2.77;0.97;;;12.70;99.90;;;;;;5037776;28;20798;-88
2023/10/14 11:22:02;;;;;;;4.97;1.00;;;12.80;99.90;;;;;;5037325;28;20223;-87
2023/10/14 11:24:31;;;;;;;3.47;1.00;;;13.00;99.90;;;;;;5046402;28;20778;-88
2023/10/14 11:27:00;;;;;;;10.17;1.40;;;13.10;99.90;;;;;;5051268;28;20230;-87
2023/10/14 11:29:33;;;;;;;3.63;1.07;;;13.20;99.90;;;;;;5045476;28;20235;-88
2023/10/14 11:32:02;;;;;;;3.23;0.90;;;13.30;99.90;;;;;;5025663;28;20233;-86
2023/10/14 11:34:34;;;;;;;3.50;1.00;;;13.30;99.90;;;;;;5045519;28;20229;-87
2023/10/14 11:37:03;;;;;;;4.50;1.00;;;13.30;99.90;;;;;;5048337;28;20275;-88
2023/10/14 11:39:32;;;;;;;17.27;2.63;;;13.20;99.90;;;;;;5040314;28;20224;-85
2023/10/14 11:42:01;;;;;;;2.43;1.00;;;13.10;99.90;;;;;;5040026;28;20230;-85
2023/10/14 11:44:29;;;;;;;4.33;1.03;;;12.90;99.90;;;;;;5046170;28;20281;-88
2023/10/14 11:46:58;;;;;;;4.47;1.20;;;12.60;99.90;;;;;;5047859;28;20339;-86
2023/10/14 11:49:24;;;;;;;4.93;1.47;;;12.20;99.90;;;;;;5044718;28;20235;-86
2023/10/14 11:51:57;;;;;;;4.93;1.50;;;11.70;99.90;;;;;;5044547;28;20315;-86
2023/10/14 11:54:27;;;;;;;4.30;1.13;;;11.30;99.90;;;;;;5045930;28;20305;-88
2023/10/14 11:56:54;;;;;;;3.17;1.10;;;11.00;99.90;;;;;;5045285;28;20267;-86
2023/10/14 11:59:21;;;;;;;7.20;1.07;;;10.80;99.90;;;;;;5041609;28;20220;-86
2023/10/14 12:01:48;;;;;;;3.70;1.20;;;10.50;99.90;;;;;;5034579;28;20765;-87
2023/10/14 12:04:15;;;;;;;5.93;1.57;;;10.30;99.90;;;;;;5029818;28;20224;-87
2023/10/14 12:06:42;;;;;;;3.93;1.40;;;10.30;99.90;;;;;;5042728;28;20967;-88
2023/10/14 12:09:10;;;;;;;4.80;1.40;;;10.40;99.90;;;;;;5037974;28;20236;-88
2023/10/14 12:11:42;;;;;;;7.57;1.23;;;10.50;99.90;;;;;;5040116;28;20228;-86
2023/10/14 12:14:11;;;;;;;4.67;1.47;;;10.60;99.90;;;;;;5028935;28;20239;-86
2023/10/14 12:16:38;;;;;;;5.37;1.40;;;10.80;99.90;;;;;;5038080;28;20250;-87
2023/10/14 12:19:05;;;;;;;5.17;1.20;;;11.00;99.90;;;;;;5043045;28;20228;-87
2023/10/14 12:21:32;;;;;;;3.97;1.50;;;11.20;99.90;;;;;;5040182;28;20223;-88
2023/10/14 12:24:02;;;;;;;7.30;2.13;;;11.40;99.90;;;;;;5041102;28;20219;-89
2023/10/14 12:26:30;;;;;;;4.27;1.30;;;11.60;99.90;;;;;;5038284;28;20401;-87
2023/10/14 12:29:07;;;;;;;5.80;1.60;;;11.70;99.90;;;;;;5037080;28;20229;-88
2023/10/14 12:31:38;;;;;;;7.20;1.60;;;12.00;99.90;;;;;;5036770;28;20820;-88
2023/10/14 12:34:08;;;;;;;5.87;1.37;;;12.10;99.90;;;;;;5040771;28;20274;-88
2023/10/14 12:36:40;;;;;;;4.17;1.47;;;12.20;99.90;;;;;;5053387;28;20237;-88
2023/10/14 12:39:18;;;;;;;5.17;1.27;;;12.40;99.90;;;;;;5038846;28;20283;-88
2023/10/14 12:41:47;;;;;;;5.23;1.30;;;12.50;99.90;;;;;;5043724;28;20228;-87
2023/10/14 12:44:15;;;;;;;6.27;1.70;;;12.70;99.90;;;;;;5041279;28;20244;-86
2023/10/14 12:46:47;;;;;;;4.73;1.67;;;12.90;99.90;;;;;;5040174;28;20321;-88
2023/10/14 12:49:18;;;;;;;5.13;1.40;;;13.00;99.90;;;;;;5058337;28;20222;-89
2023/10/14 12:51:46;;;;;;;4.77;1.37;;;13.10;99.90;;;;;;5038968;28;20225;-91
2023/10/14 12:54:16;;;;;;;4.83;1.33;;;13.30;99.90;;;;;;5035761;28;20569;-91
2023/10/14 12:56:52;;;;;;;5.93;1.37;;;13.30;99.90;;;;;;5042714;28;20259;-91
2023/10/14 12:59:24;;;;;;;10.53;2.20;;;13.40;99.90;;;;;;5036519;28;20242;-87
2023/10/14 13:01:59;;;;;;;5.10;1.30;;;13.60;99.90;;;;;;5036461;28;20315;-92
2023/10/14 13:04:27;;;;;;;4.53;1.40;;;13.70;99.90;;;;;;5040455;28;20234;-85